Anchorage, Alaska
Current Conditions -  °F | °C
As of 11:53 PM on Thursday 30 Oct 2014 (Local Time) from PANC Reporting Station
Clear Clear  
Wind Chill: 24°   Ceiling: Unl
Heat Index: 24°   Visibility: 10mi
Dew Point: 14°   Wind: 3mph
Humidity: 65%   Direction: NA
Pressure: 29.36"   Gusts: NA
Location:  61.16°N, 150.01°W
Report Text: PANC 310753Z VRB03KT 10SM CLR M04/M10 A2936 RMK AO2 SLP944 T10441100
Loading
Personal Weather Stations






























Interactive Weather Map
Tropical Storm Tracking
New forecast layout! Learn more

10-Day Weather Forecast

Advertisements
Track Severe Weather on mobile